sensor_id;sensor_type;location;lat;lon;timestamp;P1;durP1;ratioP1;P2;durP2;ratioP2
69207;SDS011;70114;47.690;8.898;2023-11-19T00:01:14;5.85;;;1.40;;
69207;SDS011;70114;47.690;8.898;2023-11-19T00:03:41;6.70;;;1.70;;
69207;SDS011;70114;47.690;8.898;2023-11-19T00:06:12;5.93;;;1.50;;
69207;SDS011;70114;47.690;8.898;2023-11-19T00:08:49;6.07;;;1.40;;
69207;SDS011;70114;47.690;8.898;2023-11-19T00:11:18;5.22;;;1.33;;
69207;SDS011;70114;47.690;8.898;2023-11-19T00:13:46;6.50;;;1.90;;
69207;SDS011;70114;47.690;8.898;2023-11-19T00:16:22;5.80;;;1.50;;
69207;SDS011;70114;47.690;8.898;2023-11-19T00:18:50;6.40;;;1.60;;
69207;SDS011;70114;47.690;8.898;2023-11-19T00:21:23;6.43;;;1.58;;
69207;SDS011;70114;47.690;8.898;2023-11-19T00:23:54;6.55;;;1.85;;
69207;SDS011;70114;47.690;8.898;2023-11-19T00:26:27;7.50;;;1.95;;
69207;SDS011;70114;47.690;8.898;2023-11-19T00:28:55;6.13;;;1.60;;
69207;SDS011;70114;47.690;8.898;2023-11-19T00:31:21;6.97;;;1.90;;
69207;SDS011;70114;47.690;8.898;2023-11-19T00:34:02;6.43;;;1.90;;
69207;SDS011;70114;47.690;8.898;2023-11-19T00:36:30;7.30;;;1.70;;
69207;SDS011;70114;47.690;8.898;2023-11-19T00:39:03;6.70;;;1.67;;
69207;SDS011;70114;47.690;8.898;2023-11-19T00:41:36;8.30;;;1.85;;
69207;SDS011;70114;47.690;8.898;2023-11-19T00:44:04;6.97;;;1.90;;
69207;SDS011;70114;47.690;8.898;2023-11-19T00:46:39;6.53;;;2.03;;
69207;SDS011;70114;47.690;8.898;2023-11-19T00:49:08;6.63;;;2.05;;
69207;SDS011;70114;47.690;8.898;2023-11-19T00:51:40;6.88;;;2.10;;
69207;SDS011;70114;47.690;8.898;2023-11-19T00:54:12;6.32;;;1.90;;
69207;SDS011;70114;47.690;8.898;2023-11-19T00:56:40;7.47;;;2.20;;
69207;SDS011;70114;47.690;8.898;2023-11-19T00:59:13;6.45;;;1.80;;
69207;SDS011;70114;47.690;8.898;2023-11-19T01:01:45;7.05;;;1.92;;
69207;SDS011;70114;47.690;8.898;2023-11-19T01:04:16;7.55;;;1.48;;
69207;SDS011;70114;47.690;8.898;2023-11-19T01:06:47;6.20;;;1.63;;
69207;SDS011;70114;47.690;8.898;2023-11-19T01:09:20;6.10;;;1.37;;
69207;SDS011;70114;47.690;8.898;2023-11-19T01:11:48;6.43;;;1.42;;
69207;SDS011;70114;47.690;8.898;2023-11-19T01:14:14;6.07;;;1.50;;
69207;SDS011;70114;47.690;8.898;2023-11-19T01:16:53;6.13;;;1.30;;
69207;SDS011;70114;47.690;8.898;2023-11-19T01:19:21;5.65;;;1.20;;
69207;SDS011;70114;47.690;8.898;2023-11-19T01:21:52;5.80;;;1.20;;
69207;SDS011;70114;47.690;8.898;2023-11-19T01:24:26;5.15;;;1.30;;
69207;SDS011;70114;47.690;8.898;2023-11-19T01:26:59;5.30;;;1.23;;
69207;SDS011;70114;47.690;8.898;2023-11-19T01:29:28;5.95;;;1.30;;
69207;SDS011;70114;47.690;8.898;2023-11-19T01:32:01;5.35;;;1.20;;
69207;SDS011;70114;47.690;8.898;2023-11-19T01:34:34;5.00;;;1.10;;
69207;SDS011;70114;47.690;8.898;2023-11-19T01:37:00;5.53;;;1.08;;
69207;SDS011;70114;47.690;8.898;2023-11-19T01:39:34;5.72;;;1.20;;
69207;SDS011;70114;47.690;8.898;2023-11-19T01:42:05;4.90;;;1.08;;
69207;SDS011;70114;47.690;8.898;2023-11-19T01:44:38;5.22;;;0.95;;
69207;SDS011;70114;47.690;8.898;2023-11-19T01:47:07;5.27;;;1.00;;
69207;SDS011;70114;47.690;8.898;2023-11-19T01:49:36;5.22;;;0.88;;
69207;SDS011;70114;47.690;8.898;2023-11-19T01:52:13;5.50;;;0.85;;
69207;SDS011;70114;47.690;8.898;2023-11-19T01:54:40;5.15;;;1.00;;
69207;SDS011;70114;47.690;8.898;2023-11-19T01:57:15;4.28;;;0.90;;
69207;SDS011;70114;47.690;8.898;2023-11-19T01:59:44;6.50;;;1.27;;
69207;SDS011;70114;47.690;8.898;2023-11-19T02:02:17;5.50;;;1.00;;
69207;SDS011;70114;47.690;8.898;2023-11-19T02:04:49;4.53;;;0.70;;
69207;SDS011;70114;47.690;8.898;2023-11-19T02:07:18;5.35;;;0.90;;
69207;SDS011;70114;47.690;8.898;2023-11-19T02:09:50;4.10;;;0.73;;
69207;SDS011;70114;47.690;8.898;2023-11-19T02:12:19;4.47;;;0.80;;
69207;SDS011;70114;47.690;8.898;2023-11-19T02:14:48;4.15;;;0.77;;
69207;SDS011;70114;47.690;8.898;2023-11-19T02:20:18;4.45;;;0.70;;
69207;SDS011;70114;47.690;8.898;2023-11-19T02:22:54;4.88;;;0.80;;
69207;SDS011;70114;47.690;8.898;2023-11-19T02:25:30;5.00;;;0.80;;
69207;SDS011;70114;47.690;8.898;2023-11-19T02:28:01;3.72;;;0.73;;
69207;SDS011;70114;47.690;8.898;2023-11-19T02:30:30;4.63;;;0.80;;
69207;SDS011;70114;47.690;8.898;2023-11-19T02:33:00;4.13;;;0.80;;
69207;SDS011;70114;47.690;8.898;2023-11-19T02:35:33;4.80;;;0.68;;
69207;SDS011;70114;47.690;8.898;2023-11-19T02:38:01;5.10;;;0.83;;
69207;SDS011;70114;47.690;8.898;2023-11-19T02:40:34;5.35;;;1.02;;
69207;SDS011;70114;47.690;8.898;2023-11-19T02:43:00;5.03;;;0.98;;
69207;SDS011;70114;47.690;8.898;2023-11-19T02:45:36;4.30;;;0.80;;
69207;SDS011;70114;47.690;8.898;2023-11-19T02:48:09;4.18;;;0.70;;
69207;SDS011;70114;47.690;8.898;2023-11-19T02:50:42;5.80;;;0.87;;
69207;SDS011;70114;47.690;8.898;2023-11-19T02:53:08;5.75;;;0.90;;
69207;SDS011;70114;47.690;8.898;2023-11-19T02:55:41;6.90;;;0.90;;
69207;SDS011;70114;47.690;8.898;2023-11-19T02:58:44;4.93;;;0.70;;
69207;SDS011;70114;47.690;8.898;2023-11-19T03:01:20;5.60;;;0.90;;
69207;SDS011;70114;47.690;8.898;2023-11-19T03:03:54;4.72;;;0.98;;
69207;SDS011;70114;47.690;8.898;2023-11-19T03:06:20;4.87;;;1.10;;
69207;SDS011;70114;47.690;8.898;2023-11-19T03:08:49;5.32;;;1.00;;
69207;SDS011;70114;47.690;8.898;2023-11-19T03:11:21;5.97;;;1.15;;
69207;SDS011;70114;47.690;8.898;2023-11-19T03:13:49;5.57;;;1.20;;
69207;SDS011;70114;47.690;8.898;2023-11-19T03:16:24;5.43;;;1.15;;
69207;SDS011;70114;47.690;8.898;2023-11-19T03:18:55;4.90;;;1.00;;
69207;SDS011;70114;47.690;8.898;2023-11-19T03:21:28;5.43;;;1.20;;
69207;SDS011;70114;47.690;8.898;2023-11-19T03:23:57;6.18;;;1.20;;
69207;SDS011;70114;47.690;8.898;2023-11-19T03:26:26;6.43;;;1.50;;
69207;SDS011;70114;47.690;8.898;2023-11-19T03:29:00;5.38;;;1.23;;
69207;SDS011;70114;47.690;8.898;2023-11-19T03:31:32;5.80;;;1.40;;
69207;SDS011;70114;47.690;8.898;2023-11-19T03:34:01;6.85;;;1.30;;
69207;SDS011;70114;47.690;8.898;2023-11-19T03:36:35;6.38;;;1.23;;
69207;SDS011;70114;47.690;8.898;2023-11-19T03:39:03;5.88;;;1.30;;
69207;SDS011;70114;47.690;8.898;2023-11-19T03:41:36;5.53;;;1.48;;
69207;SDS011;70114;47.690;8.898;2023-11-19T03:44:09;6.70;;;1.67;;
69207;SDS011;70114;47.690;8.898;2023-11-19T03:46:38;6.30;;;1.80;;
69207;SDS011;70114;47.690;8.898;2023-11-19T03:49:11;6.55;;;2.03;;
69207;SDS011;70114;47.690;8.898;2023-11-19T03:51:44;7.40;;;1.80;;
69207;SDS011;70114;47.690;8.898;2023-11-19T03:54:10;6.18;;;1.75;;
69207;SDS011;70114;47.690;8.898;2023-11-19T03:56:45;9.87;;;2.07;;
69207;SDS011;70114;47.690;8.898;2023-11-19T03:59:14;7.72;;;2.10;;
69207;SDS011;70114;47.690;8.898;2023-11-19T04:01:43;7.10;;;2.22;;
69207;SDS011;70114;47.690;8.898;2023-11-19T04:04:20;8.30;;;2.35;;
69207;SDS011;70114;47.690;8.898;2023-11-19T04:06:48;8.13;;;2.28;;
69207;SDS011;70114;47.690;8.898;2023-11-19T04:09:23;7.53;;;2.47;;
69207;SDS011;70114;47.690;8.898;2023-11-19T04:11:51;7.70;;;2.40;;
69207;SDS011;70114;47.690;8.898;2023-11-19T04:14:23;7.95;;;2.78;;
69207;SDS011;70114;47.690;8.898;2023-11-19T04:16:54;8.13;;;2.63;;
69207;SDS011;70114;47.690;8.898;2023-11-19T04:19:27;7.97;;;2.83;;
69207;SDS011;70114;47.690;8.898;2023-11-19T04:21:55;8.87;;;2.70;;
69207;SDS011;70114;47.690;8.898;2023-11-19T04:24:28;9.13;;;2.70;;
69207;SDS011;70114;47.690;8.898;2023-11-19T04:27:00;7.43;;;2.38;;
69207;SDS011;70114;47.690;8.898;2023-11-19T04:29:29;7.75;;;2.47;;
69207;SDS011;70114;47.690;8.898;2023-11-19T04:32:03;8.32;;;2.80;;
69207;SDS011;70114;47.690;8.898;2023-11-19T04:34:33;7.53;;;2.53;;
69207;SDS011;70114;47.690;8.898;2023-11-19T04:37:01;7.68;;;2.70;;
69207;SDS011;70114;47.690;8.898;2023-11-19T04:39:36;8.27;;;2.65;;
69207;SDS011;70114;47.690;8.898;2023-11-19T04:42:05;8.13;;;2.83;;
69207;SDS011;70114;47.690;8.898;2023-11-19T04:44:39;7.82;;;2.80;;
69207;SDS011;70114;47.690;8.898;2023-11-19T04:47:07;9.23;;;3.10;;
69207;SDS011;70114;47.690;8.898;2023-11-19T04:52:42;8.80;;;3.00;;
69207;SDS011;70114;47.690;8.898;2023-11-19T04:55:10;9.32;;;3.10;;
69207;SDS011;70114;47.690;8.898;2023-11-19T04:57:45;8.40;;;2.90;;
69207;SDS011;70114;47.690;8.898;2023-11-19T05:00:19;11.40;;;3.37;;
69207;SDS011;70114;47.690;8.898;2023-11-19T05:02:46;8.70;;;2.97;;
69207;SDS011;70114;47.690;8.898;2023-11-19T05:05:19;12.13;;;3.40;;
69207;SDS011;70114;47.690;8.898;2023-11-19T05:07:48;11.27;;;3.38;;
69207;SDS011;70114;47.690;8.898;2023-11-19T05:10:20;9.32;;;3.22;;
69207;SDS011;70114;47.690;8.898;2023-11-19T05:12:55;9.68;;;3.13;;
69207;SDS011;70114;47.690;8.898;2023-11-19T05:15:24;10.07;;;3.20;;
69207;SDS011;70114;47.690;8.898;2023-11-19T05:17:56;9.57;;;2.97;;
69207;SDS011;70114;47.690;8.898;2023-11-19T05:20:24;7.93;;;2.70;;
69207;SDS011;70114;47.690;8.898;2023-11-19T05:22:59;9.30;;;2.72;;
69207;SDS011;70114;47.690;8.898;2023-11-19T05:25:28;9.50;;;2.80;;
69207;SDS011;70114;47.690;8.898;2023-11-19T05:27:59;8.00;;;2.50;;
69207;SDS011;70114;47.690;8.898;2023-11-19T05:30:34;9.20;;;2.63;;
69207;SDS011;70114;47.690;8.898;2023-11-19T05:33:00;10.00;;;2.80;;
69207;SDS011;70114;47.690;8.898;2023-11-19T05:35:28;12.95;;;2.85;;
69207;SDS011;70114;47.690;8.898;2023-11-19T05:38:08;9.63;;;2.65;;
69207;SDS011;70114;47.690;8.898;2023-11-19T05:40:37;13.05;;;2.50;;
69207;SDS011;70114;47.690;8.898;2023-11-19T05:43:10;106.63;;;7.53;;
69207;SDS011;70114;47.690;8.898;2023-11-19T05:45:42;22.85;;;3.17;;
69207;SDS011;70114;47.690;8.898;2023-11-19T05:48:10;20.27;;;3.30;;
69207;SDS011;70114;47.690;8.898;2023-11-19T05:50:45;53.92;;;4.93;;
69207;SDS011;70114;47.690;8.898;2023-11-19T05:53:14;13.07;;;2.65;;
69207;SDS011;70114;47.690;8.898;2023-11-19T05:55:45;14.60;;;2.73;;
69207;SDS011;70114;47.690;8.898;2023-11-19T05:58:29;9.00;;;2.13;;
69207;SDS011;70114;47.690;8.898;2023-11-19T06:01:04;7.82;;;2.20;;
69207;SDS011;70114;47.690;8.898;2023-11-19T06:03:32;6.15;;;1.80;;
69207;SDS011;70114;47.690;8.898;2023-11-19T06:06:05;6.80;;;2.05;;
69207;SDS011;70114;47.690;8.898;2023-11-19T06:11:03;7.30;;;1.67;;
69207;SDS011;70114;47.690;8.898;2023-11-19T06:13:29;6.55;;;2.00;;
69207;SDS011;70114;47.690;8.898;2023-11-19T06:16:24;7.22;;;1.92;;
69207;SDS011;70114;47.690;8.898;2023-11-19T06:18:57;7.20;;;2.35;;
69207;SDS011;70114;47.690;8.898;2023-11-19T06:21:28;6.23;;;1.67;;
69207;SDS011;70114;47.690;8.898;2023-11-19T06:23:56;6.78;;;1.77;;
69207;SDS011;70114;47.690;8.898;2023-11-19T06:26:30;8.35;;;2.05;;
69207;SDS011;70114;47.690;8.898;2023-11-19T06:28:59;7.93;;;1.85;;
69207;SDS011;70114;47.690;8.898;2023-11-19T06:31:30;6.38;;;1.73;;
69207;SDS011;70114;47.690;8.898;2023-11-19T06:34:06;6.67;;;1.77;;
69207;SDS011;70114;47.690;8.898;2023-11-19T06:36:35;7.63;;;1.95;;
69207;SDS011;70114;47.690;8.898;2023-11-19T06:39:00;7.03;;;2.03;;
69207;SDS011;70114;47.690;8.898;2023-11-19T06:41:44;6.65;;;1.92;;
69207;SDS011;70114;47.690;8.898;2023-11-19T06:44:22;6.03;;;1.80;;
69207;SDS011;70114;47.690;8.898;2023-11-19T06:46:57;6.80;;;1.87;;
69207;SDS011;70114;47.690;8.898;2023-11-19T06:49:25;6.05;;;1.65;;
69207;SDS011;70114;47.690;8.898;2023-11-19T06:52:00;6.35;;;1.63;;
69207;SDS011;70114;47.690;8.898;2023-11-19T06:54:28;6.68;;;1.67;;
69207;SDS011;70114;47.690;8.898;2023-11-19T06:57:03;6.30;;;1.55;;
69207;SDS011;70114;47.690;8.898;2023-11-19T06:59:33;6.37;;;1.53;;
69207;SDS011;70114;47.690;8.898;2023-11-19T07:02:01;6.15;;;1.50;;
69207;SDS011;70114;47.690;8.898;2023-11-19T07:04:36;6.30;;;1.77;;
69207;SDS011;70114;47.690;8.898;2023-11-19T07:07:04;6.90;;;1.73;;
69207;SDS011;70114;47.690;8.898;2023-11-19T07:09:37;6.20;;;1.60;;
69207;SDS011;70114;47.690;8.898;2023-11-19T07:12:06;6.87;;;1.90;;
69207;SDS011;70114;47.690;8.898;2023-11-19T07:14:34;7.47;;;2.00;;
69207;SDS011;70114;47.690;8.898;2023-11-19T07:17:00;6.75;;;2.00;;
69207;SDS011;70114;47.690;8.898;2023-11-19T07:19:28;7.17;;;1.93;;
69207;SDS011;70114;47.690;8.898;2023-11-19T07:21:59;6.45;;;1.80;;
69207;SDS011;70114;47.690;8.898;2023-11-19T07:24:31;7.00;;;2.15;;
69207;SDS011;70114;47.690;8.898;2023-11-19T07:26:59;6.63;;;1.65;;
69207;SDS011;70114;47.690;8.898;2023-11-19T07:29:28;5.87;;;1.47;;
69207;SDS011;70114;47.690;8.898;2023-11-19T07:32:05;6.18;;;1.42;;
69207;SDS011;70114;47.690;8.898;2023-11-19T07:34:33;6.47;;;1.35;;
69207;SDS011;70114;47.690;8.898;2023-11-19T07:37:08;7.03;;;1.40;;
69207;SDS011;70114;47.690;8.898;2023-11-19T07:39:36;5.90;;;1.23;;
69207;SDS011;70114;47.690;8.898;2023-11-19T07:42:08;5.57;;;1.30;;
69207;SDS011;70114;47.690;8.898;2023-11-19T07:44:40;5.25;;;1.15;;
69207;SDS011;70114;47.690;8.898;2023-11-19T07:47:09;6.00;;;0.95;;
69207;SDS011;70114;47.690;8.898;2023-11-19T07:49:40;5.85;;;0.90;;
69207;SDS011;70114;47.690;8.898;2023-11-19T07:52:14;6.75;;;1.77;;
69207;SDS011;70114;47.690;8.898;2023-11-19T07:54:43;5.67;;;1.10;;
69207;SDS011;70114;47.690;8.898;2023-11-19T07:57:16;6.20;;;1.10;;
69207;SDS011;70114;47.690;8.898;2023-11-19T07:59:47;5.93;;;1.10;;
69207;SDS011;70114;47.690;8.898;2023-11-19T08:02:18;5.10;;;0.88;;
69207;SDS011;70114;47.690;8.898;2023-11-19T08:04:51;5.22;;;0.80;;
69207;SDS011;70114;47.690;8.898;2023-11-19T08:07:20;4.20;;;0.80;;
69207;SDS011;70114;47.690;8.898;2023-11-19T08:09:56;4.70;;;0.73;;
69207;SDS011;70114;47.690;8.898;2023-11-19T08:12:24;4.65;;;0.70;;
69207;SDS011;70114;47.690;8.898;2023-11-19T08:14:53;4.05;;;0.60;;
69207;SDS011;70114;47.690;8.898;2023-11-19T08:17:27;3.95;;;0.70;;
69207;SDS011;70114;47.690;8.898;2023-11-19T08:19:55;5.27;;;0.80;;
69207;SDS011;70114;47.690;8.898;2023-11-19T08:22:28;4.70;;;0.70;;
69207;SDS011;70114;47.690;8.898;2023-11-19T08:25:15;3.70;;;0.60;;
69207;SDS011;70114;47.690;8.898;2023-11-19T08:27:47;3.95;;;0.57;;
69207;SDS011;70114;47.690;8.898;2023-11-19T08:30:19;3.05;;;0.50;;
69207;SDS011;70114;47.690;8.898;2023-11-19T08:32:47;4.30;;;0.60;;
69207;SDS011;70114;47.690;8.898;2023-11-19T08:35:20;4.57;;;0.50;;
69207;SDS011;70114;47.690;8.898;2023-11-19T08:37:55;5.13;;;0.65;;
69207;SDS011;70114;47.690;8.898;2023-11-19T08:40:23;4.38;;;0.60;;
69207;SDS011;70114;47.690;8.898;2023-11-19T08:42:53;4.32;;;0.70;;
69207;SDS011;70114;47.690;8.898;2023-11-19T08:45:21;5.40;;;0.73;;
69207;SDS011;70114;47.690;8.898;2023-11-19T08:47:57;5.70;;;0.68;;
69207;SDS011;70114;47.690;8.898;2023-11-19T08:50:25;5.50;;;1.00;;
69207;SDS011;70114;47.690;8.898;2023-11-19T08:53:01;4.93;;;0.70;;
69207;SDS011;70114;47.690;8.898;2023-11-19T08:55:29;4.43;;;0.95;;
69207;SDS011;70114;47.690;8.898;2023-11-19T08:58:02;4.03;;;0.70;;
69207;SDS011;70114;47.690;8.898;2023-11-19T09:00:36;4.00;;;0.70;;
69207;SDS011;70114;47.690;8.898;2023-11-19T09:03:05;3.80;;;0.77;;
69207;SDS011;70114;47.690;8.898;2023-11-19T09:05:36;4.55;;;0.85;;
69207;SDS011;70114;47.690;8.898;2023-11-19T09:08:11;4.30;;;0.80;;
69207;SDS011;70114;47.690;8.898;2023-11-19T09:10:37;3.97;;;0.60;;
69207;SDS011;70114;47.690;8.898;2023-11-19T09:13:11;5.57;;;1.00;;
69207;SDS011;70114;47.690;8.898;2023-11-19T09:15:43;3.80;;;0.60;;
69207;SDS011;70114;47.690;8.898;2023-11-19T09:18:12;3.70;;;0.60;;
69207;SDS011;70114;47.690;8.898;2023-11-19T09:20:45;5.28;;;0.73;;
69207;SDS011;70114;47.690;8.898;2023-11-19T09:23:13;3.40;;;0.52;;
69207;SDS011;70114;47.690;8.898;2023-11-19T09:25:47;2.67;;;0.45;;
69207;SDS011;70114;47.690;8.898;2023-11-19T09:28:19;2.80;;;0.55;;
69207;SDS011;70114;47.690;8.898;2023-11-19T09:30:47;3.80;;;0.50;;
69207;SDS011;70114;47.690;8.898;2023-11-19T09:33:20;4.10;;;0.65;;
69207;SDS011;70114;47.690;8.898;2023-11-19T09:35:48;3.85;;;0.50;;
69207;SDS011;70114;47.690;8.898;2023-11-19T09:38:19;3.65;;;0.50;;
69207;SDS011;70114;47.690;8.898;2023-11-19T09:40:47;2.72;;;0.40;;
69207;SDS011;70114;47.690;8.898;2023-11-19T09:43:56;3.00;;;0.50;;
69207;SDS011;70114;47.690;8.898;2023-11-19T09:46:25;3.35;;;0.50;;
69207;SDS011;70114;47.690;8.898;2023-11-19T09:48:57;3.30;;;0.50;;
69207;SDS011;70114;47.690;8.898;2023-11-19T09:51:27;3.15;;;0.40;;
69207;SDS011;70114;47.690;8.898;2023-11-19T09:54:01;3.75;;;0.47;;
69207;SDS011;70114;47.690;8.898;2023-11-19T09:56:31;3.00;;;0.50;;
69207;SDS011;70114;47.690;8.898;2023-11-19T09:59:03;2.60;;;0.35;;
69207;SDS011;70114;47.690;8.898;2023-11-19T10:01:31;2.45;;;0.30;;
69207;SDS011;70114;47.690;8.898;2023-11-19T10:04:06;2.53;;;0.30;;
69207;SDS011;70114;47.690;8.898;2023-11-19T10:06:38;2.28;;;0.30;;
69207;SDS011;70114;47.690;8.898;2023-11-19T10:09:07;2.47;;;0.37;;
69207;SDS011;70114;47.690;8.898;2023-11-19T10:11:41;2.53;;;0.38;;
69207;SDS011;70114;47.690;8.898;2023-11-19T10:14:10;3.38;;;0.50;;
69207;SDS011;70114;47.690;8.898;2023-11-19T10:16:45;3.53;;;0.50;;
69207;SDS011;70114;47.690;8.898;2023-11-19T10:19:14;3.03;;;0.40;;
69207;SDS011;70114;47.690;8.898;2023-11-19T10:21:45;2.63;;;0.40;;
69207;SDS011;70114;47.690;8.898;2023-11-19T10:24:13;3.33;;;0.52;;
69207;SDS011;70114;47.690;8.898;2023-11-19T10:26:48;4.15;;;0.68;;
69207;SDS011;70114;47.690;8.898;2023-11-19T10:29:22;6.07;;;1.27;;
69207;SDS011;70114;47.690;8.898;2023-11-19T10:34:58;4.20;;;0.67;;
69207;SDS011;70114;47.690;8.898;2023-11-19T10:37:41;3.42;;;0.50;;
69207;SDS011;70114;47.690;8.898;2023-11-19T10:40:10;4.07;;;0.70;;
69207;SDS011;70114;47.690;8.898;2023-11-19T10:42:38;5.97;;;1.80;;
69207;SDS011;70114;47.690;8.898;2023-11-19T10:45:13;5.00;;;1.05;;
69207;SDS011;70114;47.690;8.898;2023-11-19T10:48:00;11.17;;;4.50;;
69207;SDS011;70114;47.690;8.898;2023-11-19T10:50:29;8.45;;;2.58;;
69207;SDS011;70114;47.690;8.898;2023-11-19T10:53:01;7.15;;;2.10;;
69207;SDS011;70114;47.690;8.898;2023-11-19T10:55:32;8.20;;;3.35;;
69207;SDS011;70114;47.690;8.898;2023-11-19T10:58:04;9.03;;;2.90;;
69207;SDS011;70114;47.690;8.898;2023-11-19T11:03:10;6.57;;;1.95;;
69207;SDS011;70114;47.690;8.898;2023-11-19T11:05:51;7.05;;;1.85;;
69207;SDS011;70114;47.690;8.898;2023-11-19T11:08:24;5.90;;;1.92;;
69207;SDS011;70114;47.690;8.898;2023-11-19T11:10:53;8.27;;;2.23;;
69207;SDS011;70114;47.690;8.898;2023-11-19T11:13:28;4.95;;;1.25;;
69207;SDS011;70114;47.690;8.898;2023-11-19T11:15:58;5.20;;;1.13;;
69207;SDS011;70114;47.690;8.898;2023-11-19T11:18:29;6.35;;;1.70;;
69207;SDS011;70114;47.690;8.898;2023-11-19T11:21:00;6.47;;;1.60;;
69207;SDS011;70114;47.690;8.898;2023-11-19T11:32:51;5.90;;;1.50;;
69207;SDS011;70114;47.690;8.898;2023-11-19T11:38:10;6.00;;;1.43;;
69207;SDS011;70114;47.690;8.898;2023-11-19T11:40:38;4.70;;;0.90;;
69207;SDS011;70114;47.690;8.898;2023-11-19T11:46:53;3.60;;;0.70;;
69207;SDS011;70114;47.690;8.898;2023-11-19T11:48:59;4.68;;;0.70;;
69207;SDS011;70114;47.690;8.898;2023-11-19T11:54:25;6.20;;;1.50;;
69207;SDS011;70114;47.690;8.898;2023-11-19T11:57:15;5.85;;;1.02;;
69207;SDS011;70114;47.690;8.898;2023-11-19T11:59:52;6.90;;;1.58;;
69207;SDS011;70114;47.690;8.898;2023-11-19T12:02:21;3.30;;;0.63;;
69207;SDS011;70114;47.690;8.898;2023-11-19T12:04:51;3.47;;;0.63;;
69207;SDS011;70114;47.690;8.898;2023-11-19T12:10:10;5.70;;;1.00;;
69207;SDS011;70114;47.690;8.898;2023-11-19T12:12:43;4.40;;;0.90;;
69207;SDS011;70114;47.690;8.898;2023-11-19T12:15:11;2.97;;;0.50;;
69207;SDS011;70114;47.690;8.898;2023-11-19T12:17:47;4.40;;;0.50;;
69207;SDS011;70114;47.690;8.898;2023-11-19T12:20:28;5.28;;;1.50;;
69207;SDS011;70114;47.690;8.898;2023-11-19T12:23:02;5.72;;;1.50;;
69207;SDS011;70114;47.690;8.898;2023-11-19T12:25:33;7.53;;;1.13;;
69207;SDS011;70114;47.690;8.898;2023-11-19T12:28:01;10.10;;;4.70;;
69207;SDS011;70114;47.690;8.898;2023-11-19T12:30:37;3.70;;;0.70;;
69207;SDS011;70114;47.690;8.898;2023-11-19T12:33:07;4.80;;;1.20;;
69207;SDS011;70114;47.690;8.898;2023-11-19T12:35:44;4.40;;;1.00;;
69207;SDS011;70114;47.690;8.898;2023-11-19T12:38:27;4.55;;;0.90;;
69207;SDS011;70114;47.690;8.898;2023-11-19T12:44:11;4.70;;;0.83;;
69207;SDS011;70114;47.690;8.898;2023-11-19T12:46:39;5.15;;;1.40;;
69207;SDS011;70114;47.690;8.898;2023-11-19T12:49:15;4.80;;;1.02;;
69207;SDS011;70114;47.690;8.898;2023-11-19T12:51:46;4.68;;;1.25;;
69207;SDS011;70114;47.690;8.898;2023-11-19T12:54:31;7.32;;;1.88;;
69207;SDS011;70114;47.690;8.898;2023-11-19T12:57:06;7.03;;;1.73;;
69207;SDS011;70114;47.690;8.898;2023-11-19T12:59:37;5.38;;;1.30;;
69207;SDS011;70114;47.690;8.898;2023-11-19T13:02:06;5.63;;;1.65;;
69207;SDS011;70114;47.690;8.898;2023-11-19T13:04:38;5.15;;;1.20;;
69207;SDS011;70114;47.690;8.898;2023-11-19T13:07:05;5.85;;;1.58;;
69207;SDS011;70114;47.690;8.898;2023-11-19T13:09:41;5.73;;;1.73;;
69207;SDS011;70114;47.690;8.898;2023-11-19T13:12:16;4.47;;;1.42;;
69207;SDS011;70114;47.690;8.898;2023-11-19T13:14:41;4.80;;;0.82;;
69207;SDS011;70114;47.690;8.898;2023-11-19T13:17:14;4.23;;;0.83;;
69207;SDS011;70114;47.690;8.898;2023-11-19T13:19:43;4.23;;;0.80;;
69207;SDS011;70114;47.690;8.898;2023-11-19T13:22:14;4.72;;;0.95;;
69207;SDS011;70114;47.690;8.898;2023-11-19T13:24:48;3.65;;;0.70;;
69207;SDS011;70114;47.690;8.898;2023-11-19T13:27:22;4.57;;;0.80;;
69207;SDS011;70114;47.690;8.898;2023-11-19T13:29:51;4.32;;;0.88;;
69207;SDS011;70114;47.690;8.898;2023-11-19T13:32:25;4.13;;;0.80;;
69207;SDS011;70114;47.690;8.898;2023-11-19T13:34:51;4.20;;;0.80;;
69207;SDS011;70114;47.690;8.898;2023-11-19T13:37:24;5.67;;;0.93;;
69207;SDS011;70114;47.690;8.898;2023-11-19T13:39:56;3.88;;;0.80;;
69207;SDS011;70114;47.690;8.898;2023-11-19T13:42:30;4.47;;;0.93;;
69207;SDS011;70114;47.690;8.898;2023-11-19T13:44:58;5.20;;;1.00;;
69207;SDS011;70114;47.690;8.898;2023-11-19T13:47:26;4.45;;;0.80;;
69207;SDS011;70114;47.690;8.898;2023-11-19T13:49:59;4.67;;;0.80;;
69207;SDS011;70114;47.690;8.898;2023-11-19T13:52:32;4.07;;;0.80;;
69207;SDS011;70114;47.690;8.898;2023-11-19T13:55:04;5.63;;;1.10;;
69207;SDS011;70114;47.690;8.898;2023-11-19T13:57:35;4.10;;;0.60;;
69207;SDS011;70114;47.690;8.898;2023-11-19T14:00:03;3.28;;;0.50;;
69207;SDS011;70114;47.690;8.898;2023-11-19T14:02:38;4.73;;;1.00;;
69207;SDS011;70114;47.690;8.898;2023-11-19T14:05:27;3.50;;;0.50;;
69207;SDS011;70114;47.690;8.898;2023-11-19T14:07:53;3.67;;;0.55;;
69207;SDS011;70114;47.690;8.898;2023-11-19T14:10:24;4.55;;;0.63;;
69207;SDS011;70114;47.690;8.898;2023-11-19T14:12:58;5.28;;;1.10;;
69207;SDS011;70114;47.690;8.898;2023-11-19T14:15:27;5.30;;;0.90;;
69207;SDS011;70114;47.690;8.898;2023-11-19T14:18:01;3.65;;;0.63;;
69207;SDS011;70114;47.690;8.898;2023-11-19T14:20:30;4.32;;;0.65;;
69207;SDS011;70114;47.690;8.898;2023-11-19T14:22:58;6.82;;;1.40;;
69207;SDS011;70114;47.690;8.898;2023-11-19T14:25:36;3.83;;;0.70;;
69207;SDS011;70114;47.690;8.898;2023-11-19T14:28:04;3.90;;;0.50;;
69207;SDS011;70114;47.690;8.898;2023-11-19T14:30:37;5.03;;;0.85;;
69207;SDS011;70114;47.690;8.898;2023-11-19T14:33:09;4.57;;;0.93;;
69207;SDS011;70114;47.690;8.898;2023-11-19T14:35:37;3.15;;;0.50;;
69207;SDS011;70114;47.690;8.898;2023-11-19T14:38:11;5.22;;;0.90;;
69207;SDS011;70114;47.690;8.898;2023-11-19T14:40:42;7.10;;;1.37;;
69207;SDS011;70114;47.690;8.898;2023-11-19T14:43:14;8.20;;;1.48;;
69207;SDS011;70114;47.690;8.898;2023-11-19T14:45:43;7.28;;;2.88;;
69207;SDS011;70114;47.690;8.898;2023-11-19T14:48:16;3.45;;;0.60;;
69207;SDS011;70114;47.690;8.898;2023-11-19T14:50:45;4.13;;;1.23;;
69207;SDS011;70114;47.690;8.898;2023-11-19T14:53:18;3.67;;;0.90;;
69207;SDS011;70114;47.690;8.898;2023-11-19T14:55:48;5.43;;;1.83;;
69207;SDS011;70114;47.690;8.898;2023-11-19T14:58:22;5.72;;;0.90;;
69207;SDS011;70114;47.690;8.898;2023-11-19T15:00:51;2.78;;;0.50;;
69207;SDS011;70114;47.690;8.898;2023-11-19T15:03:24;4.20;;;0.75;;
69207;SDS011;70114;47.690;8.898;2023-11-19T15:05:55;4.93;;;0.93;;
69207;SDS011;70114;47.690;8.898;2023-11-19T15:08:29;4.85;;;0.73;;
69207;SDS011;70114;47.690;8.898;2023-11-19T15:10:57;7.65;;;1.70;;
69207;SDS011;70114;47.690;8.898;2023-11-19T15:13:32;3.97;;;0.60;;
69207;SDS011;70114;47.690;8.898;2023-11-19T15:15:58;6.55;;;2.88;;
69207;SDS011;70114;47.690;8.898;2023-11-19T15:18:31;5.20;;;1.20;;
69207;SDS011;70114;47.690;8.898;2023-11-19T15:21:03;3.58;;;0.50;;
69207;SDS011;70114;47.690;8.898;2023-11-19T15:23:32;5.27;;;1.33;;
69207;SDS011;70114;47.690;8.898;2023-11-19T15:25:57;6.75;;;0.77;;
69207;SDS011;70114;47.690;8.898;2023-11-19T15:28:34;3.22;;;0.50;;
69207;SDS011;70114;47.690;8.898;2023-11-19T15:31:07;4.05;;;0.50;;
69207;SDS011;70114;47.690;8.898;2023-11-19T15:33:39;3.65;;;0.60;;
69207;SDS011;70114;47.690;8.898;2023-11-19T15:36:10;3.27;;;0.53;;
69207;SDS011;70114;47.690;8.898;2023-11-19T15:38:43;4.03;;;0.40;;
69207;SDS011;70114;47.690;8.898;2023-11-19T15:41:12;4.60;;;0.80;;
69207;SDS011;70114;47.690;8.898;2023-11-19T15:43:44;4.00;;;0.70;;
69207;SDS011;70114;47.690;8.898;2023-11-19T15:46:12;4.22;;;0.60;;
69207;SDS011;70114;47.690;8.898;2023-11-19T15:48:47;5.17;;;0.80;;
69207;SDS011;70114;47.690;8.898;2023-11-19T15:51:18;4.35;;;0.77;;
69207;SDS011;70114;47.690;8.898;2023-11-19T15:53:46;4.55;;;0.60;;